sensor_id;sensor_type;location;lat;lon;timestamp;temperature;humidity
1978;DHT22;989;53.016;8.346;2022-08-02T00:00:31;8.90;99.90
1978;DHT22;989;53.016;8.346;2022-08-02T00:02:57;8.70;99.90
1978;DHT22;989;53.016;8.346;2022-08-02T00:05:23;8.60;99.90
1978;DHT22;989;53.016;8.346;2022-08-02T00:07:49;8.60;99.90
1978;DHT22;989;53.016;8.346;2022-08-02T00:10:15;8.50;99.90
1978;DHT22;989;53.016;8.346;2022-08-02T00:12:41;8.70;99.90
1978;DHT22;989;53.016;8.346;2022-08-02T00:15:08;8.70;99.90
1978;DHT22;989;53.016;8.346;2022-08-02T00:17:34;8.60;99.90
1978;DHT22;989;53.016;8.346;2022-08-02T00:20:02;8.50;99.90
1978;DHT22;989;53.016;8.346;2022-08-02T00:22:28;8.30;99.90
1978;DHT22;989;53.016;8.346;2022-08-02T00:24:54;8.30;99.90
1978;DHT22;989;53.016;8.346;2022-08-02T00:27:20;8.20;99.90
1978;DHT22;989;53.016;8.346;2022-08-02T00:29:46;8.10;99.90
1978;DHT22;989;53.016;8.346;2022-08-02T00:32:12;8.00;99.90
1978;DHT22;989;53.016;8.346;2022-08-02T00:34:38;7.90;99.90
1978;DHT22;989;53.016;8.346;2022-08-02T00:37:04;7.90;99.90
1978;DHT22;989;53.016;8.346;2022-08-02T00:39:30;7.90;99.90
1978;DHT22;989;53.016;8.346;2022-08-02T00:41:56;7.90;99.90
1978;DHT22;989;53.016;8.346;2022-08-02T00:44:22;8.00;99.90
1978;DHT22;989;53.016;8.346;2022-08-02T00:46:48;8.10;99.90
1978;DHT22;989;53.016;8.346;2022-08-02T00:49:14;8.20;99.90
1978;DHT22;989;53.016;8.346;2022-08-02T00:51:41;8.20;99.90
1978;DHT22;989;53.016;8.346;2022-08-02T00:54:07;8.20;99.90
1978;DHT22;989;53.016;8.346;2022-08-02T00:56:34;8.30;99.90
1978;DHT22;989;53.016;8.346;2022-08-02T00:59:01;8.30;99.90
1978;DHT22;989;53.016;8.346;2022-08-02T01:01:27;8.30;99.90
1978;DHT22;989;53.016;8.346;2022-08-02T01:04:11;8.30;99.90
1978;DHT22;989;53.016;8.346;2022-08-02T01:06:39;8.40;99.90
1978;DHT22;989;53.016;8.346;2022-08-02T01:09:07;8.30;99.90
1978;DHT22;989;53.016;8.346;2022-08-02T01:11:34;8.20;99.90
1978;DHT22;989;53.016;8.346;2022-08-02T01:14:12;8.20;99.90
1978;DHT22;989;53.016;8.346;2022-08-02T01:16:57;8.10;99.90
1978;DHT22;989;53.016;8.346;2022-08-02T01:22:21;8.00;99.90
1978;DHT22;989;53.016;8.346;2022-08-02T01:28:20;8.00;99.90
1978;DHT22;989;53.016;8.346;2022-08-02T01:30:56;7.80;99.90
1978;DHT22;989;53.016;8.346;2022-08-02T01:33:27;7.80;99.90
1978;DHT22;989;53.016;8.346;2022-08-02T01:35:55;7.70;99.90
1978;DHT22;989;53.016;8.346;2022-08-02T01:38:31;7.70;99.90
1978;DHT22;989;53.016;8.346;2022-08-02T01:41:01;7.70;99.90
1978;DHT22;989;53.016;8.346;2022-08-02T01:43:29;7.80;99.90
1978;DHT22;989;53.016;8.346;2022-08-02T01:45:57;7.90;99.90
1978;DHT22;989;53.016;8.346;2022-08-02T01:48:26;8.00;99.90
1978;DHT22;989;53.016;8.346;2022-08-02T01:50:53;8.10;99.90
1978;DHT22;989;53.016;8.346;2022-08-02T01:53:20;8.30;99.90
1978;DHT22;989;53.016;8.346;2022-08-02T01:55:49;8.20;99.90
1978;DHT22;989;53.016;8.346;2022-08-02T01:58:17;8.20;99.90
1978;DHT22;989;53.016;8.346;2022-08-02T02:00:45;8.10;99.90
1978;DHT22;989;53.016;8.346;2022-08-02T02:03:18;8.00;99.90
1978;DHT22;989;53.016;8.346;2022-08-02T02:05:47;7.90;99.90
1978;DHT22;989;53.016;8.346;2022-08-02T02:08:13;8.00;99.90
1978;DHT22;989;53.016;8.346;2022-08-02T02:10:41;7.90;99.90
1978;DHT22;989;53.016;8.346;2022-08-02T02:13:13;7.80;99.90
1978;DHT22;989;53.016;8.346;2022-08-02T02:15:47;7.90;99.90
1978;DHT22;989;53.016;8.346;2022-08-02T02:18:17;8.00;99.90
1978;DHT22;989;53.016;8.346;2022-08-02T02:20:45;7.90;99.90
1978;DHT22;989;53.016;8.346;2022-08-02T02:23:13;8.00;99.90
1978;DHT22;989;53.016;8.346;2022-08-02T02:25:40;7.90;99.90
1978;DHT22;989;53.016;8.346;2022-08-02T02:28:28;7.90;99.90
1978;DHT22;989;53.016;8.346;2022-08-02T02:31:01;7.80;99.90
1978;DHT22;989;53.016;8.346;2022-08-02T02:33:29;7.70;99.90
1978;DHT22;989;53.016;8.346;2022-08-02T02:35:57;7.80;99.90
1978;DHT22;989;53.016;8.346;2022-08-02T02:38:26;7.80;99.90
1978;DHT22;989;53.016;8.346;2022-08-02T02:40:55;7.70;99.90
1978;DHT22;989;53.016;8.346;2022-08-02T02:43:24;7.60;99.90
1978;DHT22;989;53.016;8.346;2022-08-02T02:45:54;7.40;99.90
1978;DHT22;989;53.016;8.346;2022-08-02T02:48:20;7.40;99.90
1978;DHT22;989;53.016;8.346;2022-08-02T02:50:47;7.40;99.90
1978;DHT22;989;53.016;8.346;2022-08-02T02:53:16;7.40;99.90
1978;DHT22;989;53.016;8.346;2022-08-02T02:55:43;7.40;99.90
1978;DHT22;989;53.016;8.346;2022-08-02T02:58:09;7.30;99.90
1978;DHT22;989;53.016;8.346;2022-08-02T03:00:36;7.20;99.90
1978;DHT22;989;53.016;8.346;2022-08-02T03:03:21;7.00;99.90
1978;DHT22;989;53.016;8.346;2022-08-02T03:05:47;7.00;99.90
1978;DHT22;989;53.016;8.346;2022-08-02T03:08:14;6.90;99.90
1978;DHT22;989;53.016;8.346;2022-08-02T03:10:42;6.90;99.90
1978;DHT22;989;53.016;8.346;2022-08-02T03:13:09;6.80;99.90
1978;DHT22;989;53.016;8.346;2022-08-02T03:15:35;6.70;99.90
1978;DHT22;989;53.016;8.346;2022-08-02T03:18:02;6.70;99.90
1978;DHT22;989;53.016;8.346;2022-08-02T03:20:28;6.60;99.90
1978;DHT22;989;53.016;8.346;2022-08-02T03:22:54;6.50;99.90
1978;DHT22;989;53.016;8.346;2022-08-02T03:25:20;6.60;99.90
1978;DHT22;989;53.016;8.346;2022-08-02T03:27:46;6.60;99.90
1978;DHT22;989;53.016;8.346;2022-08-02T03:30:13;6.80;99.90
1978;DHT22;989;53.016;8.346;2022-08-02T03:32:42;6.90;99.90
1978;DHT22;989;53.016;8.346;2022-08-02T03:35:11;7.00;99.90
1978;DHT22;989;53.016;8.346;2022-08-02T03:37:39;6.90;99.90
1978;DHT22;989;53.016;8.346;2022-08-02T03:40:08;6.80;99.90
1978;DHT22;989;53.016;8.346;2022-08-02T03:42:35;6.80;99.90
1978;DHT22;989;53.016;8.346;2022-08-02T03:45:02;6.80;99.90
1978;DHT22;989;53.016;8.346;2022-08-02T03:47:29;6.90;99.90
1978;DHT22;989;53.016;8.346;2022-08-02T03:49:56;7.00;99.90
1978;DHT22;989;53.016;8.346;2022-08-02T03:52:23;6.90;99.90
1978;DHT22;989;53.016;8.346;2022-08-02T03:54:49;6.90;99.90
1978;DHT22;989;53.016;8.346;2022-08-02T03:57:15;7.00;99.90
1978;DHT22;989;53.016;8.346;2022-08-02T03:59:44;7.00;99.90
1978;DHT22;989;53.016;8.346;2022-08-02T04:02:11;7.10;99.90
1978;DHT22;989;53.016;8.346;2022-08-02T04:04:38;7.10;99.90
1978;DHT22;989;53.016;8.346;2022-08-02T04:07:04;7.10;99.90
1978;DHT22;989;53.016;8.346;2022-08-02T04:09:31;7.10;99.90
1978;DHT22;989;53.016;8.346;2022-08-02T04:11:57;7.10;99.90
1978;DHT22;989;53.016;8.346;2022-08-02T04:14:23;7.10;99.90
1978;DHT22;989;53.016;8.346;2022-08-02T04:16:57;7.20;99.90
1978;DHT22;989;53.016;8.346;2022-08-02T04:19:48;7.20;99.90
1978;DHT22;989;53.016;8.346;2022-08-02T04:22:30;7.20;99.90
1978;DHT22;989;53.016;8.346;2022-08-02T04:25:03;7.30;99.90
1978;DHT22;989;53.016;8.346;2022-08-02T04:27:31;7.50;99.90
1978;DHT22;989;53.016;8.346;2022-08-02T04:29:57;7.70;99.90
1978;DHT22;989;53.016;8.346;2022-08-02T04:32:24;7.90;99.90
1978;DHT22;989;53.016;8.346;2022-08-02T04:34:50;8.60;99.90
1978;DHT22;989;53.016;8.346;2022-08-02T04:37:16;9.30;99.90
1978;DHT22;989;53.016;8.346;2022-08-02T04:39:43;9.90;99.90
1978;DHT22;989;53.016;8.346;2022-08-02T04:42:09;10.30;99.90
1978;DHT22;989;53.016;8.346;2022-08-02T04:44:35;10.50;99.90
1978;DHT22;989;53.016;8.346;2022-08-02T04:47:02;10.70;99.90
1978;DHT22;989;53.016;8.346;2022-08-02T04:49:30;10.70;99.90
1978;DHT22;989;53.016;8.346;2022-08-02T04:51:56;10.70;99.90
1978;DHT22;989;53.016;8.346;2022-08-02T04:54:22;10.70;99.90
1978;DHT22;989;53.016;8.346;2022-08-02T04:56:50;10.90;99.90
1978;DHT22;989;53.016;8.346;2022-08-02T04:59:16;11.10;99.90
1978;DHT22;989;53.016;8.346;2022-08-02T05:01:42;11.10;99.90
1978;DHT22;989;53.016;8.346;2022-08-02T05:04:09;11.40;99.90
1978;DHT22;989;53.016;8.346;2022-08-02T05:06:35;11.80;99.90
1978;DHT22;989;53.016;8.346;2022-08-02T05:09:01;12.20;99.90
1978;DHT22;989;53.016;8.346;2022-08-02T05:11:27;12.40;99.90
1978;DHT22;989;53.016;8.346;2022-08-02T05:13:53;12.70;99.90
1978;DHT22;989;53.016;8.346;2022-08-02T05:16:20;12.90;91.30
1978;DHT22;989;53.016;8.346;2022-08-02T05:18:46;13.30;92.20
1978;DHT22;989;53.016;8.346;2022-08-02T05:21:12;13.60;89.70
1978;DHT22;989;53.016;8.346;2022-08-02T05:23:38;13.70;70.70
1978;DHT22;989;53.016;8.346;2022-08-02T05:26:04;13.60;58.80
1978;DHT22;989;53.016;8.346;2022-08-02T05:28:30;13.30;56.60
1978;DHT22;989;53.016;8.346;2022-08-02T05:30:56;13.00;61.60
1978;DHT22;989;53.016;8.346;2022-08-02T05:33:22;12.50;70.00
1978;DHT22;989;53.016;8.346;2022-08-02T05:35:48;12.30;77.80
1978;DHT22;989;53.016;8.346;2022-08-02T05:38:14;12.30;81.10
1978;DHT22;989;53.016;8.346;2022-08-02T05:40:40;12.30;81.70
1978;DHT22;989;53.016;8.346;2022-08-02T05:43:13;12.20;86.50
1978;DHT22;989;53.016;8.346;2022-08-02T05:45:40;12.30;88.90
1978;DHT22;989;53.016;8.346;2022-08-02T05:48:06;12.30;89.80
1978;DHT22;989;53.016;8.346;2022-08-02T05:50:38;12.30;90.50
1978;DHT22;989;53.016;8.346;2022-08-02T05:53:27;12.40;90.50
1978;DHT22;989;53.016;8.346;2022-08-02T05:56:26;12.40;90.00
1978;DHT22;989;53.016;8.346;2022-08-02T05:59:17;12.50;89.60
1978;DHT22;989;53.016;8.346;2022-08-02T06:01:47;12.60;88.60
1978;DHT22;989;53.016;8.346;2022-08-02T06:04:25;12.70;90.20
1978;DHT22;989;53.016;8.346;2022-08-02T06:06:54;12.80;91.60
1978;DHT22;989;53.016;8.346;2022-08-02T06:09:24;12.90;90.40
1978;DHT22;989;53.016;8.346;2022-08-02T06:11:51;13.10;89.00
1978;DHT22;989;53.016;8.346;2022-08-02T06:14:18;13.10;87.20
1978;DHT22;989;53.016;8.346;2022-08-02T06:16:44;13.30;86.50
1978;DHT22;989;53.016;8.346;2022-08-02T06:19:11;13.40;86.30
1978;DHT22;989;53.016;8.346;2022-08-02T06:21:41;13.50;87.90
1978;DHT22;989;53.016;8.346;2022-08-02T06:24:09;13.70;87.20
1978;DHT22;989;53.016;8.346;2022-08-02T06:26:35;13.80;84.90
1978;DHT22;989;53.016;8.346;2022-08-02T06:29:02;13.90;80.80
1978;DHT22;989;53.016;8.346;2022-08-02T06:31:28;14.10;80.60
1978;DHT22;989;53.016;8.346;2022-08-02T06:33:55;14.30;77.80
1978;DHT22;989;53.016;8.346;2022-08-02T06:36:42;14.60;75.60
1978;DHT22;989;53.016;8.346;2022-08-02T06:39:34;15.30;63.70
1978;DHT22;989;53.016;8.346;2022-08-02T06:42:07;16.00;52.50
1978;DHT22;989;53.016;8.346;2022-08-02T06:44:35;16.80;38.30
1978;DHT22;989;53.016;8.346;2022-08-02T06:47:03;17.30;27.40
1978;DHT22;989;53.016;8.346;2022-08-02T06:49:29;17.90;17.80
1978;DHT22;989;53.016;8.346;2022-08-02T06:51:55;18.30;14.00
1978;DHT22;989;53.016;8.346;2022-08-02T06:54:21;18.10;9.70
1978;DHT22;989;53.016;8.346;2022-08-02T06:56:47;18.30;13.10
1978;DHT22;989;53.016;8.346;2022-08-02T06:59:13;18.30;10.70
1978;DHT22;989;53.016;8.346;2022-08-02T07:01:40;18.60;1.00
1978;DHT22;989;53.016;8.346;2022-08-02T07:04:06;19.00;1.00
1978;DHT22;989;53.016;8.346;2022-08-02T07:06:32;19.50;1.00
1978;DHT22;989;53.016;8.346;2022-08-02T07:08:58;19.80;1.00
1978;DHT22;989;53.016;8.346;2022-08-02T07:11:24;20.00;1.00
1978;DHT22;989;53.016;8.346;2022-08-02T07:13:50;20.50;1.00
1978;DHT22;989;53.016;8.346;2022-08-02T07:16:16;20.40;1.00
1978;DHT22;989;53.016;8.346;2022-08-02T07:18:42;20.30;1.00
1978;DHT22;989;53.016;8.346;2022-08-02T07:21:08;20.40;1.00
1978;DHT22;989;53.016;8.346;2022-08-02T07:23:34;19.90;1.00
1978;DHT22;989;53.016;8.346;2022-08-02T07:26:00;20.00;1.00
1978;DHT22;989;53.016;8.346;2022-08-02T07:28:26;20.30;1.00
1978;DHT22;989;53.016;8.346;2022-08-02T07:30:52;20.30;1.00
1978;DHT22;989;53.016;8.346;2022-08-02T07:33:18;20.30;1.00
1978;DHT22;989;53.016;8.346;2022-08-02T07:35:45;20.90;1.00
1978;DHT22;989;53.016;8.346;2022-08-02T07:38:11;21.30;1.00
1978;DHT22;989;53.016;8.346;2022-08-02T07:40:37;21.60;1.00
1978;DHT22;989;53.016;8.346;2022-08-02T07:43:03;21.00;1.00
1978;DHT22;989;53.016;8.346;2022-08-02T07:45:29;21.20;1.00
1978;DHT22;989;53.016;8.346;2022-08-02T07:47:56;21.70;1.00
1978;DHT22;989;53.016;8.346;2022-08-02T07:50:22;22.00;1.00
1978;DHT22;989;53.016;8.346;2022-08-02T07:52:49;22.00;1.00
1978;DHT22;989;53.016;8.346;2022-08-02T07:55:15;22.00;1.00
1978;DHT22;989;53.016;8.346;2022-08-02T07:57:43;22.30;1.00
1978;DHT22;989;53.016;8.346;2022-08-02T08:00:10;23.10;1.00
1978;DHT22;989;53.016;8.346;2022-08-02T08:02:37;22.90;1.00
1978;DHT22;989;53.016;8.346;2022-08-02T08:05:03;22.70;1.00
1978;DHT22;989;53.016;8.346;2022-08-02T08:07:29;22.70;1.00
1978;DHT22;989;53.016;8.346;2022-08-02T08:09:55;22.70;1.00
1978;DHT22;989;53.016;8.346;2022-08-02T08:12:22;22.70;1.00
1978;DHT22;989;53.016;8.346;2022-08-02T08:14:48;22.80;1.00
1978;DHT22;989;53.016;8.346;2022-08-02T08:17:14;22.20;1.00
1978;DHT22;989;53.016;8.346;2022-08-02T08:19:40;22.50;1.00
1978;DHT22;989;53.016;8.346;2022-08-02T08:22:06;23.20;1.00
1978;DHT22;989;53.016;8.346;2022-08-02T08:24:32;23.20;1.00
1978;DHT22;989;53.016;8.346;2022-08-02T08:26:58;23.30;1.00
1978;DHT22;989;53.016;8.346;2022-08-02T08:29:24;23.00;1.00
1978;DHT22;989;53.016;8.346;2022-08-02T08:31:51;23.60;1.00
1978;DHT22;989;53.016;8.346;2022-08-02T08:34:18;24.10;1.00
1978;DHT22;989;53.016;8.346;2022-08-02T08:36:44;24.00;1.00
1978;DHT22;989;53.016;8.346;2022-08-02T08:39:10;23.90;1.00
1978;DHT22;989;53.016;8.346;2022-08-02T08:41:36;23.10;1.00
1978;DHT22;989;53.016;8.346;2022-08-02T08:44:03;23.10;1.00
1978;DHT22;989;53.016;8.346;2022-08-02T08:46:30;22.80;1.00
1978;DHT22;989;53.016;8.346;2022-08-02T08:49:12;23.70;1.00
1978;DHT22;989;53.016;8.346;2022-08-02T08:51:41;23.50;1.00
1978;DHT22;989;53.016;8.346;2022-08-02T08:54:11;23.50;1.00
1978;DHT22;989;53.016;8.346;2022-08-02T08:56:39;24.10;1.00
1978;DHT22;989;53.016;8.346;2022-08-02T08:59:07;24.20;1.00
1978;DHT22;989;53.016;8.346;2022-08-02T09:01:33;23.70;1.00
1978;DHT22;989;53.016;8.346;2022-08-02T09:03:59;24.20;1.00
1978;DHT22;989;53.016;8.346;2022-08-02T09:06:25;24.50;1.00
1978;DHT22;989;53.016;8.346;2022-08-02T09:08:51;24.20;1.00
1978;DHT22;989;53.016;8.346;2022-08-02T09:11:21;24.90;1.00
1978;DHT22;989;53.016;8.346;2022-08-02T09:13:54;24.50;1.00
1978;DHT22;989;53.016;8.346;2022-08-02T09:16:46;24.50;1.00
1978;DHT22;989;53.016;8.346;2022-08-02T09:19:24;24.60;1.00
1978;DHT22;989;53.016;8.346;2022-08-02T09:21:59;25.40;1.00
1978;DHT22;989;53.016;8.346;2022-08-02T09:24:25;23.80;1.00
1978;DHT22;989;53.016;8.346;2022-08-02T09:26:51;24.50;1.00
1978;DHT22;989;53.016;8.346;2022-08-02T09:29:21;24.80;1.00
1978;DHT22;989;53.016;8.346;2022-08-02T09:31:47;24.90;1.00
1978;DHT22;989;53.016;8.346;2022-08-02T09:34:15;25.10;1.00
1978;DHT22;989;53.016;8.346;2022-08-02T09:36:43;25.70;1.00
1978;DHT22;989;53.016;8.346;2022-08-02T09:39:14;26.40;1.00
1978;DHT22;989;53.016;8.346;2022-08-02T09:41:42;26.70;1.00
1978;DHT22;989;53.016;8.346;2022-08-02T09:44:10;26.50;1.00
1978;DHT22;989;53.016;8.346;2022-08-02T09:46:42;25.10;1.00
1978;DHT22;989;53.016;8.346;2022-08-02T09:49:16;24.70;1.00
1978;DHT22;989;53.016;8.346;2022-08-02T09:54:28;24.10;1.00
1978;DHT22;989;53.016;8.346;2022-08-02T09:56:59;24.60;1.00
1978;DHT22;989;53.016;8.346;2022-08-02T09:59:26;25.00;1.00
1978;DHT22;989;53.016;8.346;2022-08-02T10:01:54;25.80;1.00
1978;DHT22;989;53.016;8.346;2022-08-02T10:04:22;25.50;1.00
1978;DHT22;989;53.016;8.346;2022-08-02T10:06:50;25.80;1.00
1978;DHT22;989;53.016;8.346;2022-08-02T10:09:16;25.40;1.00
1978;DHT22;989;53.016;8.346;2022-08-02T10:11:42;25.40;1.00
1978;DHT22;989;53.016;8.346;2022-08-02T10:14:10;25.80;1.00
1978;DHT22;989;53.016;8.346;2022-08-02T10:16:38;26.70;1.00
1978;DHT22;989;53.016;8.346;2022-08-02T10:19:05;27.70;1.00
1978;DHT22;989;53.016;8.346;2022-08-02T10:21:47;27.30;1.00
1978;DHT22;989;53.016;8.346;2022-08-02T10:24:17;25.90;1.00
1978;DHT22;989;53.016;8.346;2022-08-02T10:26:45;25.90;1.00
1978;DHT22;989;53.016;8.346;2022-08-02T10:29:15;25.80;1.00
1978;DHT22;989;53.016;8.346;2022-08-02T10:31:55;26.40;1.00
1978;DHT22;989;53.016;8.346;2022-08-02T10:34:26;27.00;1.00
1978;DHT22;989;53.016;8.346;2022-08-02T10:36:54;28.10;1.00
1978;DHT22;989;53.016;8.346;2022-08-02T10:39:21;28.60;1.00
1978;DHT22;989;53.016;8.346;2022-08-02T10:41:49;29.20;1.00
1978;DHT22;989;53.016;8.346;2022-08-02T10:44:24;28.90;1.00
1978;DHT22;989;53.016;8.346;2022-08-02T10:46:51;28.00;1.00
1978;DHT22;989;53.016;8.346;2022-08-02T10:49:19;28.50;1.00
1978;DHT22;989;53.016;8.346;2022-08-02T10:54:43;29.00;1.00
1978;DHT22;989;53.016;8.346;2022-08-02T10:57:19;28.60;1.00
1978;DHT22;989;53.016;8.346;2022-08-02T10:59:47;29.10;1.00
1978;DHT22;989;53.016;8.346;2022-08-02T11:02:38;28.80;1.00
1978;DHT22;989;53.016;8.346;2022-08-02T11:05:24;28.00;1.00
1978;DHT22;989;53.016;8.346;2022-08-02T11:07:51;27.60;1.00
1978;DHT22;989;53.016;8.346;2022-08-02T11:10:29;27.70;1.00
1978;DHT22;989;53.016;8.346;2022-08-02T11:13:16;28.20;1.00
1978;DHT22;989;53.016;8.346;2022-08-02T11:15:57;28.60;1.00
1978;DHT22;989;53.016;8.346;2022-08-02T11:21:28;27.60;1.00
1978;DHT22;989;53.016;8.346;2022-08-02T11:23:55;27.80;1.00
1978;DHT22;989;53.016;8.346;2022-08-02T11:28:57;27.10;1.00
1978;DHT22;989;53.016;8.346;2022-08-02T11:31:23;28.00;1.00
1978;DHT22;989;53.016;8.346;2022-08-02T11:33:50;28.60;1.00
1978;DHT22;989;53.016;8.346;2022-08-02T11:36:17;29.40;1.00
1978;DHT22;989;53.016;8.346;2022-08-02T11:38:43;29.70;1.00
1978;DHT22;989;53.016;8.346;2022-08-02T11:41:18;29.40;1.00
1978;DHT22;989;53.016;8.346;2022-08-02T11:43:45;29.30;1.00
1978;DHT22;989;53.016;8.346;2022-08-02T11:46:13;29.70;1.00
1978;DHT22;989;53.016;8.346;2022-08-02T11:48:40;29.60;1.00
1978;DHT22;989;53.016;8.346;2022-08-02T11:51:16;29.40;1.00
1978;DHT22;989;53.016;8.346;2022-08-02T11:56:18;30.10;1.00
1978;DHT22;989;53.016;8.346;2022-08-02T11:59:09;29.80;1.00
1978;DHT22;989;53.016;8.346;2022-08-02T12:01:38;30.30;1.00
1978;DHT22;989;53.016;8.346;2022-08-02T12:04:05;30.10;1.00
1978;DHT22;989;53.016;8.346;2022-08-02T12:06:34;30.80;1.00
1978;DHT22;989;53.016;8.346;2022-08-02T12:09:05;31.40;1.00
1978;DHT22;989;53.016;8.346;2022-08-02T12:11:31;31.30;1.00
1978;DHT22;989;53.016;8.346;2022-08-02T12:13:59;29.50;1.00
1978;DHT22;989;53.016;8.346;2022-08-02T12:16:35;29.60;1.00
1978;DHT22;989;53.016;8.346;2022-08-02T12:19:21;30.30;1.00
1978;DHT22;989;53.016;8.346;2022-08-02T12:24:38;29.20;1.00
1978;DHT22;989;53.016;8.346;2022-08-02T12:27:04;29.80;1.00
1978;DHT22;989;53.016;8.346;2022-08-02T12:29:39;29.50;1.00
1978;DHT22;989;53.016;8.346;2022-08-02T12:32:05;29.90;1.00
1978;DHT22;989;53.016;8.346;2022-08-02T12:34:34;30.20;1.00
1978;DHT22;989;53.016;8.346;2022-08-02T12:37:05;30.60;1.00
1978;DHT22;989;53.016;8.346;2022-08-02T12:39:40;29.00;1.00
1978;DHT22;989;53.016;8.346;2022-08-02T12:42:09;28.20;1.00
1978;DHT22;989;53.016;8.346;2022-08-02T12:44:53;28.40;1.00
1978;DHT22;989;53.016;8.346;2022-08-02T12:47:20;29.10;1.00
1978;DHT22;989;53.016;8.346;2022-08-02T12:52:31;30.50;1.00
1978;DHT22;989;53.016;8.346;2022-08-02T12:54:57;29.40;1.00
1978;DHT22;989;53.016;8.346;2022-08-02T12:57:23;28.70;1.00
1978;DHT22;989;53.016;8.346;2022-08-02T12:59:51;29.60;1.00
1978;DHT22;989;53.016;8.346;2022-08-02T13:02:18;30.70;1.00
1978;DHT22;989;53.016;8.346;2022-08-02T13:04:44;31.70;1.00
1978;DHT22;989;53.016;8.346;2022-08-02T13:07:10;31.90;1.00
1978;DHT22;989;53.016;8.346;2022-08-02T13:09:38;31.90;1.00
1978;DHT22;989;53.016;8.346;2022-08-02T13:12:05;32.00;1.00
1978;DHT22;989;53.016;8.346;2022-08-02T13:14:32;30.10;1.00
1978;DHT22;989;53.016;8.346;2022-08-02T13:16:58;30.30;1.00
1978;DHT22;989;53.016;8.346;2022-08-02T13:19:25;31.30;1.00
1978;DHT22;989;53.016;8.346;2022-08-02T13:21:51;31.60;1.00
1978;DHT22;989;53.016;8.346;2022-08-02T13:24:18;30.60;1.00
1978;DHT22;989;53.016;8.346;2022-08-02T13:26:44;30.60;1.00
1978;DHT22;989;53.016;8.346;2022-08-02T13:29:11;30.40;1.00
1978;DHT22;989;53.016;8.346;2022-08-02T13:31:38;29.90;1.00
1978;DHT22;989;53.016;8.346;2022-08-02T13:34:06;28.80;1.00
1978;DHT22;989;53.016;8.346;2022-08-02T13:36:34;30.00;1.00
1978;DHT22;989;53.016;8.346;2022-08-02T13:39:03;30.80;1.00
1978;DHT22;989;53.016;8.346;2022-08-02T13:41:31;31.30;1.00
1978;DHT22;989;53.016;8.346;2022-08-02T13:43:57;30.60;1.00
1978;DHT22;989;53.016;8.346;2022-08-02T13:46:23;30.10;1.00
1978;DHT22;989;53.016;8.346;2022-08-02T13:48:49;31.50;1.00
1978;DHT22;989;53.016;8.346;2022-08-02T13:51:15;31.60;1.00
1978;DHT22;989;53.016;8.346;2022-08-02T13:53:41;31.70;1.00
1978;DHT22;989;53.016;8.346;2022-08-02T13:56:07;32.50;1.00
1978;DHT22;989;53.016;8.346;2022-08-02T13:58:33;32.20;1.00
1978;DHT22;989;53.016;8.346;2022-08-02T14:00:59;32.50;1.00
1978;DHT22;989;53.016;8.346;2022-08-02T14:03:25;32.20;1.00
1978;DHT22;989;53.016;8.346;2022-08-02T14:05:51;32.00;1.00
1978;DHT22;989;53.016;8.346;2022-08-02T14:08:18;33.10;1.00
1978;DHT22;989;53.016;8.346;2022-08-02T14:10:46;33.10;1.00
1978;DHT22;989;53.016;8.346;2022-08-02T14:13:12;32.30;1.00
1978;DHT22;989;53.016;8.346;2022-08-02T14:15:39;31.90;1.00
1978;DHT22;989;53.016;8.346;2022-08-02T14:18:05;31.40;1.00
1978;DHT22;989;53.016;8.346;2022-08-02T14:20:31;32.20;1.00
1978;DHT22;989;53.016;8.346;2022-08-02T14:22:57;33.30;1.00
1978;DHT22;989;53.016;8.346;2022-08-02T14:25:23;33.60;1.00
1978;DHT22;989;53.016;8.346;2022-08-02T14:27:49;33.60;1.00
1978;DHT22;989;53.016;8.346;2022-08-02T14:30:15;33.50;1.00
1978;DHT22;989;53.016;8.346;2022-08-02T14:32:42;34.30;1.00
1978;DHT22;989;53.016;8.346;2022-08-02T14:35:09;33.90;1.00
1978;DHT22;989;53.016;8.346;2022-08-02T14:37:35;33.10;1.00
1978;DHT22;989;53.016;8.346;2022-08-02T14:40:01;31.50;1.00
1978;DHT22;989;53.016;8.346;2022-08-02T14:42:27;30.70;1.00
1978;DHT22;989;53.016;8.346;2022-08-02T14:44:53;30.10;1.00
1978;DHT22;989;53.016;8.346;2022-08-02T14:47:19;30.00;1.00
1978;DHT22;989;53.016;8.346;2022-08-02T14:49:45;29.80;1.00
1978;DHT22;989;53.016;8.346;2022-08-02T14:52:11;29.80;1.00
1978;DHT22;989;53.016;8.346;2022-08-02T14:54:39;29.50;1.00
1978;DHT22;989;53.016;8.346;2022-08-02T14:57:05;28.80;1.00
1978;DHT22;989;53.016;8.346;2022-08-02T14:59:31;29.10;1.00
1978;DHT22;989;53.016;8.346;2022-08-02T15:01:58;29.00;1.00
1978;DHT22;989;53.016;8.346;2022-08-02T15:04:25;28.80;1.00
1978;DHT22;989;53.016;8.346;2022-08-02T15:06:51;28.20;1.00
1978;DHT22;989;53.016;8.346;2022-08-02T15:09:18;28.20;1.00
1978;DHT22;989;53.016;8.346;2022-08-02T15:11:44;28.50;1.00
1978;DHT22;989;53.016;8.346;2022-08-02T15:14:11;28.30;1.00
1978;DHT22;989;53.016;8.346;2022-08-02T15:16:37;28.60;1.00
1978;DHT22;989;53.016;8.346;2022-08-02T15:19:04;28.60;1.00
1978;DHT22;989;53.016;8.346;2022-08-02T15:21:31;29.00;1.00
1978;DHT22;989;53.016;8.346;2022-08-02T15:23:57;29.30;1.00
1978;DHT22;989;53.016;8.346;2022-08-02T15:26:23;29.30;1.00
1978;DHT22;989;53.016;8.346;2022-08-02T15:28:49;29.40;1.00
1978;DHT22;989;53.016;8.346;2022-08-02T15:31:16;28.80;1.00
1978;DHT22;989;53.016;8.346;2022-08-02T15:33:42;28.90;1.00
1978;DHT22;989;53.016;8.346;2022-08-02T15:36:11;29.30;1.00
1978;DHT22;989;53.016;8.346;2022-08-02T15:38:37;29.30;1.00
1978;DHT22;989;53.016;8.346;2022-08-02T15:41:03;29.20;1.00
1978;DHT22;989;53.016;8.346;2022-08-02T15:43:30;29.50;1.00
1978;DHT22;989;53.016;8.346;2022-08-02T15:45:56;29.40;1.00
1978;DHT22;989;53.016;8.346;2022-08-02T15:48:22;29.10;1.00
1978;DHT22;989;53.016;8.346;2022-08-02T15:50:48;28.60;1.00
1978;DHT22;989;53.016;8.346;2022-08-02T15:53:14;28.10;1.00
1978;DHT22;989;53.016;8.346;2022-08-02T15:55:40;27.90;1.00
1978;DHT22;989;53.016;8.346;2022-08-02T15:58:06;27.70;1.00
1978;DHT22;989;53.016;8.346;2022-08-02T16:00:33;27.30;1.00
1978;DHT22;989;53.016;8.346;2022-08-02T16:03:00;27.20;1.00
1978;DHT22;989;53.016;8.346;2022-08-02T16:05:26;27.20;1.00
1978;DHT22;989;53.016;8.346;2022-08-02T16:07:52;27.30;1.00
1978;DHT22;989;53.016;8.346;2022-08-02T16:10:18;27.20;1.00
1978;DHT22;989;53.016;8.346;2022-08-02T16:12:44;27.20;1.00
1978;DHT22;989;53.016;8.346;2022-08-02T16:15:10;27.10;1.00
1978;DHT22;989;53.016;8.346;2022-08-02T16:17:37;26.90;1.00
1978;DHT22;989;53.016;8.346;2022-08-02T16:20:04;27.00;1.00
1978;DHT22;989;53.016;8.346;2022-08-02T16:22:30;27.00;1.00
1978;DHT22;989;53.016;8.346;2022-08-02T16:24:56;27.30;1.00
1978;DHT22;989;53.016;8.346;2022-08-02T16:27:22;27.80;1.00
1978;DHT22;989;53.016;8.346;2022-08-02T16:29:48;28.30;1.00
1978;DHT22;989;53.016;8.346;2022-08-02T16:32:14;28.50;1.00
1978;DHT22;989;53.016;8.346;2022-08-02T16:34:41;28.50;1.00
1978;DHT22;989;53.016;8.346;2022-08-02T16:37:07;28.00;1.00
1978;DHT22;989;53.016;8.346;2022-08-02T16:39:33;27.80;1.00
1978;DHT22;989;53.016;8.346;2022-08-02T16:42:00;27.80;1.00
1978;DHT22;989;53.016;8.346;2022-08-02T16:44:26;27.60;1.00
1978;DHT22;989;53.016;8.346;2022-08-02T16:46:55;27.30;1.00
1978;DHT22;989;53.016;8.346;2022-08-02T16:49:21;27.00;1.00
1978;DHT22;989;53.016;8.346;2022-08-02T16:51:47;26.90;1.00
1978;DHT22;989;53.016;8.346;2022-08-02T16:54:13;26.90;1.00
1978;DHT22;989;53.016;8.346;2022-08-02T16:56:39;27.00;1.00
1978;DHT22;989;53.016;8.346;2022-08-02T16:59:07;27.10;1.00
1978;DHT22;989;53.016;8.346;2022-08-02T17:01:34;27.30;1.00
1978;DHT22;989;53.016;8.346;2022-08-02T17:04:00;27.00;1.00